Ogden Hinckley Airport
KOGD : rendu visible

Aérodrome :











RETROUVEZ-NOUS SUR...

 
LOGIN :

S'inscrire | Disclaimer

   EN    FR    IT 

 









Légende :    VFR   VFR Marginal   IFR   IFR Intensif   IFR Très Intensif
Visi : 
Plafond : 
>= 8 km
>= 3000ft
5 à 8 km
1000 à 3000 ft
1500m à 5 km
500 à 1000 ft
800 à 1500m
200 à 500 ft
< 800m
< 200 ft
Symboles :   Orages  Brouillard  Fortes neiges  Fortes précipitations  Vent > 20 kt






- Altitude de l'aérodrome : 4473 ft


KOGD - Ogden Hinckley

DERNIER METAR :
  • 150653Z AUTO 16007KT 10SM CLR 04/M02 A3015 RMK AO2 SLP195 T00391022 401610006

METARs EXPIRÉS :
  • 150553Z AUTO 20007KT 10SM CLR 06/M03 A3013 RMK AO2 SLP190 T00561028 10100 20044 56004
  • 150453Z AUTO 15005KT 10SM CLR 06/M01 A3013 RMK AO2 SLP192 T00561011

TAF KOGD
Valide du 15 à 06h jusqu'au 16 à 06h UTC


150525Z 1506/1606 15005KT P6SM BKN200
FM151900 25007KT P6SM BKN200
FM160300 16006KT P6SM SCT080 BKN150



MET'MAP, la Météo Aéronautique d'un coup d'oeil ! - Copyright ORBIFLY Décembre 2007 - Disclaimer

ORBIFLY MET'MAP TEAM :

Programmation & Développement : Alexandra Zaïnal
Conception & Développement : Baudouin d'Aumeries
Co-Programmation & Développement : Marc-Olivier Méhu
Soutien technique & logistique : Manuel Goepfert

Contact : metmap@orbifly.com




SOURCES & CREDITS :

   NOAA       Earth
Advisory